Terminal Aerodrome Forecast
Issued by NWS Portland, ME

Home | Current Version | Previous Version | Text Only | Print | Product List | Glossary On
Versions: 1 2 3 4 5 6 7 8 9 10 11 12 13 14 15 16 17 18 19 20 21
000
FTUS41 KGYX 250150 AAA
TAFCON
TAF AMD
KCON 250150Z 2502/2524 05004KT P6SM SCT015 BKN025 OVC030
     FM250300 02005KT 4SM -DZ BR OVC015
     FM250400 01004KT 1SM BR OVC009
     FM251000 01004KT P6SM OVC007
     FM251500 36005KT P6SM OVC015=

USA.gov is the U.S. government's official web portal to all federal, state and local government web resources and services.